Time;durP1;ratioP1;P1;durP2;ratioP2;P2;SDS_P1;SDS_P2;PMS_P1;PMS_P2;Temp;Humidity;BMP_temperature;BMP_pressure;BME280_temperature;BME280_humidity;BME280_pressure;Samples;Min_cycle;Max_cycle;Signal;HPM_P1;HPM_P2
2021/08/16 00:00:38;;;;;;;20.60;9.73;;;;;;;24.13;67.95;96235.81;5068128;28;20761;-71
2021/08/16 00:03:04;;;;;;;15.20;9.67;;;;;;;24.24;67.29;96224.06;5070678;28;20206;-73
2021/08/16 00:05:30;;;;;;;9.70;8.67;;;;;;;24.33;66.67;96225.16;5070774;28;20175;-71
2021/08/16 00:07:55;;;;;;;13.30;9.03;;;;;;;24.29;66.97;96226.75;5070966;28;20697;-71
2021/08/16 00:10:22;;;;;;;12.83;8.80;;;;;;;24.27;66.92;96226.22;5056241;28;20670;-71
2021/08/16 00:12:48;;;;;;;12.10;8.80;;;;;;;24.05;68.11;96224.56;5065140;28;20192;-74
2021/08/16 00:15:14;;;;;;;13.87;9.03;;;;;;;24.06;68.25;96228.03;5070939;28;20887;-71
2021/08/16 00:17:39;;;;;;;11.60;9.10;;;;;;;24.22;67.45;96223.50;5070776;28;20471;-71
2021/08/16 00:20:07;;;;;;;15.43;9.20;;;;;;;24.33;66.98;96219.00;5062569;28;20417;-71
2021/08/16 00:22:32;;;;;;;17.07;10.20;;;;;;;24.31;66.93;96213.91;5070878;28;20597;-71
2021/08/16 00:24:58;;;;;;;18.47;10.63;;;;;;;24.34;67.36;96208.00;5070670;28;20444;-71
2021/08/16 00:27:23;;;;;;;14.73;9.80;;;;;;;24.10;67.74;96205.03;5070433;28;20261;-71
2021/08/16 00:29:49;;;;;;;15.97;9.20;;;;;;;24.36;67.01;96200.53;5070821;28;20194;-71
2021/08/16 00:32:15;;;;;;;14.90;8.83;;;;;;;24.27;67.18;96204.81;5068859;28;20701;-72
2021/08/16 00:34:40;;;;;;;14.63;8.87;;;;;;;24.16;67.50;96200.50;5061053;28;20202;-71
2021/08/16 00:37:06;;;;;;;14.30;10.10;;;;;;;24.24;67.34;96189.25;5067606;28;20237;-71
2021/08/16 00:39:31;;;;;;;12.83;9.83;;;;;;;24.06;68.18;96188.72;5067181;28;20196;-71
2021/08/16 00:41:57;;;;;;;13.70;9.80;;;;;;;24.12;68.53;96197.56;5055471;28;20269;-71
2021/08/16 00:44:23;;;;;;;11.00;9.30;;;;;;;24.11;68.40;96190.59;5073123;28;20217;-71
2021/08/16 00:46:49;;;;;;;16.77;9.93;;;;;;;24.08;68.29;96181.19;5074535;28;20186;-71
2021/08/16 00:49:14;;;;;;;16.13;9.97;;;;;;;24.05;68.41;96183.59;5073156;28;20629;-71
2021/08/16 00:51:40;;;;;;;10.93;8.93;;;;;;;24.17;67.83;96183.38;5074453;28;20496;-71
2021/08/16 00:54:07;;;;;;;15.30;9.33;;;;;;;24.17;67.93;96189.53;5073908;28;20575;-71
2021/08/16 00:56:34;;;;;;;12.60;9.73;;;;;;;24.26;67.31;96184.47;5072865;28;20565;-71
2021/08/16 00:59:05;;;;;;;10.90;8.93;;;;;;;24.49;66.50;96190.38;5074168;28;20973;-71
2021/08/16 01:01:30;;;;;;;12.17;9.03;;;;;;;24.43;66.29;96188.78;5057409;28;20424;-71
2021/08/16 01:03:56;;;;;;;10.67;9.03;;;;;;;24.47;66.23;96193.31;5074208;28;20447;-71
2021/08/16 01:06:22;;;;;;;14.23;8.50;;;;;;;24.41;66.16;96193.59;5074290;28;20731;-72
2021/08/16 01:08:49;;;;;;;14.30;9.97;;;;;;;24.61;65.12;96196.28;5072844;28;20436;-72
2021/08/16 01:11:17;;;;;;;13.70;9.07;;;;;;;24.47;66.25;96204.03;5058834;28;20212;-71
2021/08/16 01:13:43;;;;;;;15.60;9.80;;;;;;;24.33;67.04;96198.38;5067588;28;20444;-71
2021/08/16 01:16:08;;;;;;;14.40;9.63;;;;;;;24.17;67.62;96197.56;5065542;28;20449;-71
2021/08/16 01:18:34;;;;;;;12.90;9.70;;;;;;;24.28;67.26;96195.72;5069580;28;20468;-71
2021/08/16 01:21:01;;;;;;;11.00;9.23;;;;;;;24.29;67.37;96191.97;5070286;28;20182;-71
2021/08/16 01:23:27;;;;;;;16.83;9.30;;;;;;;24.15;67.91;96196.22;5064920;28;20525;-71
2021/08/16 01:25:53;;;;;;;14.90;9.40;;;;;;;23.83;68.75;96197.16;5073799;28;20512;-71
2021/08/16 01:28:19;;;;;;;17.30;9.33;;;;;;;23.97;68.63;96197.50;5073596;28;20222;-71
2021/08/16 01:30:45;;;;;;;14.30;9.70;;;;;;;23.81;69.02;96202.75;5073845;28;20197;-71
2021/08/16 01:33:11;;;;;;;14.80;10.67;;;;;;;23.62;69.74;96199.75;5073266;28;20543;-70
2021/08/16 01:35:37;;;;;;;14.90;10.10;;;;;;;23.60;69.92;96197.34;5073500;28;20516;-71
2021/08/16 01:38:03;;;;;;;19.60;10.30;;;;;;;23.84;68.92;96190.72;5073366;28;20202;-71
2021/08/16 01:40:28;;;;;;;17.13;10.57;;;;;;;23.76;69.34;96187.50;5056411;28;20205;-70
2021/08/16 01:42:54;;;;;;;14.90;9.93;;;;;;;23.76;69.50;96179.47;5073715;28;20205;-72
2021/08/16 01:45:19;;;;;;;23.30;10.10;;;;;;;23.54;70.12;96178.88;5073359;28;20265;-71
2021/08/16 01:47:45;;;;;;;16.07;10.60;;;;;;;23.58;70.12;96180.75;5065157;28;20182;-71
2021/08/16 01:50:11;;;;;;;11.40;10.17;;;;;;;23.56;70.33;96187.44;5073307;28;20216;-71
2021/08/16 01:52:36;;;;;;;14.67;10.10;;;;;;;23.43;71.14;96181.50;5072264;28;20183;-71
2021/08/16 01:55:04;;;;;;;12.90;9.53;;;;;;;23.28;72.09;96192.09;5071850;28;20217;-71
2021/08/16 01:57:29;;;;;;;16.50;10.97;;;;;;;23.44;71.54;96188.41;5057453;28;20666;-71
2021/08/16 01:59:55;;;;;;;12.53;9.77;;;;;;;23.33;71.66;96186.75;5073460;28;20483;-72
2021/08/16 02:02:20;;;;;;;20.43;10.47;;;;;;;23.39;70.98;96193.75;5073233;28;20186;-71
2021/08/16 02:04:47;;;;;;;13.90;9.10;;;;;;;23.84;69.10;96190.72;5072817;28;20675;-71
2021/08/16 02:07:14;;;;;;;17.17;10.47;;;;;;;23.63;69.51;96191.44;5072113;28;20269;-71
2021/08/16 02:09:39;;;;;;;15.27;9.47;;;;;;;23.77;69.20;96191.78;5062123;28;20959;-71
2021/08/16 02:12:05;;;;;;;17.20;9.37;;;;;;;23.86;68.50;96194.78;5066657;28;20428;-72
2021/08/16 02:14:31;;;;;;;15.67;9.70;;;;;;;23.41;69.91;96198.84;5066000;28;20194;-72
2021/08/16 02:16:56;;;;;;;16.53;9.60;;;;;;;23.54;69.42;96203.72;5074428;28;20198;-71
2021/08/16 02:19:22;;;;;;;12.20;9.27;;;;;;;23.12;71.19;96202.66;5072958;28;20218;-71
2021/08/16 02:21:47;;;;;;;13.87;9.90;;;;;;;23.93;67.99;96205.22;5072860;28;20281;-71
2021/08/16 02:24:13;;;;;;;14.17;10.17;;;;;;;23.92;67.74;96209.75;5072905;28;20206;-71
2021/08/16 02:26:39;;;;;;;18.33;10.33;;;;;;;24.01;67.36;96209.28;5072260;28;20202;-71
2021/08/16 02:29:04;;;;;;;19.23;9.67;;;;;;;23.79;67.91;96220.94;5064707;28;20190;-71
2021/08/16 02:31:31;;;;;;;16.10;9.47;;;;;;;23.97;67.10;96219.69;5064742;28;20185;-71
2021/08/16 02:33:57;;;;;;;12.73;9.60;;;;;;;23.91;66.89;96228.75;5072182;28;20207;-71
2021/08/16 02:36:23;;;;;;;14.83;9.60;;;;;;;23.83;66.89;96231.91;5072376;28;20548;-71
2021/08/16 02:38:48;;;;;;;11.73;8.83;;;;;;;23.70;67.48;96239.34;5070775;28;20201;-71
2021/08/16 02:41:14;;;;;;;11.60;9.10;;;;;;;23.68;67.25;96241.50;5060971;28;20178;-71
2021/08/16 02:43:39;;;;;;;15.77;9.40;;;;;;;23.39;68.05;96244.53;5072348;28;20198;-71
2021/08/16 02:46:05;;;;;;;12.80;9.50;;;;;;;23.46;68.05;96247.00;5067356;28;20215;-71
2021/08/16 02:48:31;;;;;;;13.97;9.20;;;;;;;23.44;67.43;96244.56;5072395;28;20186;-72
2021/08/16 02:50:56;;;;;;;11.83;8.60;;;;;;;23.27;68.18;96252.75;5072425;28;20646;-71
2021/08/16 02:53:22;;;;;;;11.17;8.80;;;;;;;23.36;67.71;96254.94;5071939;28;20210;-71
2021/08/16 02:55:47;;;;;;;12.57;9.10;;;;;;;23.24;68.45;96247.09;5072788;28;20186;-71
2021/08/16 02:58:13;;;;;;;17.00;9.93;;;;;;;23.19;68.66;96245.19;5070553;28;20236;-71
2021/08/16 03:00:38;;;;;;;15.57;9.70;;;;;;;23.17;68.66;96249.97;5065554;28;20234;-70
2021/08/16 03:03:04;;;;;;;11.90;8.90;;;;;;;23.26;68.34;96250.34;5071994;28;20190;-71
2021/08/16 03:05:30;;;;;;;14.27;9.27;;;;;;;23.28;68.19;96249.00;5071494;28;20212;-71
2021/08/16 03:07:55;;;;;;;11.60;9.23;;;;;;;23.25;68.16;96248.72;5064394;28;20201;-71
2021/08/16 03:10:21;;;;;;;12.37;9.40;;;;;;;23.03;69.11;96252.28;5059139;28;20192;-71
2021/08/16 03:12:47;;;;;;;15.10;9.53;;;;;;;23.07;69.01;96248.03;5071798;28;20179;-71
2021/08/16 03:15:13;;;;;;;11.03;9.30;;;;;;;23.02;69.14;96251.47;5071470;28;20193;-72
2021/08/16 03:17:39;;;;;;;13.73;10.47;;;;;;;22.88;70.27;96244.16;5071887;28;20210;-71
2021/08/16 03:20:05;;;;;;;15.70;10.03;;;;;;;22.82;70.10;96245.97;5058283;28;20519;-71
2021/08/16 03:22:31;;;;;;;11.80;9.80;;;;;;;22.73;71.10;96247.50;5071437;28;20436;-71
2021/08/16 03:24:56;;;;;;;18.10;10.47;;;;;;;22.67;71.46;96252.00;5071255;28;20501;-71
2021/08/16 03:27:22;;;;;;;24.33;11.13;;;;;;;22.36;73.27;96257.81;5071342;28;20187;-71
2021/08/16 03:29:48;;;;;;;13.83;11.00;;;;;;;22.61;72.35;96259.16;5049657;28;20642;-71
2021/08/16 03:32:13;;;;;;;18.43;10.90;;;;;;;22.70;72.09;96246.13;5069005;28;20269;-72
2021/08/16 03:34:39;;;;;;;16.00;11.83;;;;;;;22.37;73.61;96255.94;5051172;28;20614;-71
2021/08/16 03:37:05;;;;;;;15.23;10.70;;;;;;;22.54;73.17;96246.00;5053441;28;20207;-70
2021/08/16 03:39:30;;;;;;;18.60;10.60;;;;;;;22.65;72.58;96254.09;5050899;28;20285;-70
2021/08/16 03:41:56;;;;;;;13.17;11.20;;;;;;;22.40;74.03;96258.09;5051268;28;20264;-71
2021/08/16 03:44:21;;;;;;;16.80;11.27;;;;;;;22.45;74.08;96276.06;5050628;28;20212;-71
2021/08/16 03:46:47;;;;;;;17.43;11.60;;;;;;;22.61;73.50;96269.81;5050975;28;20186;-71
2021/08/16 03:49:13;;;;;;;16.60;10.90;;;;;;;22.06;76.20;96268.91;5050624;28;20274;-71
2021/08/16 03:51:38;;;;;;;29.83;12.60;;;;;;;22.29;74.74;96267.84;5051223;28;20179;-71
2021/08/16 03:54:04;;;;;;;14.37;11.20;;;;;;;22.45;74.40;96257.38;5057804;28;20502;-71
2021/08/16 03:56:30;;;;;;;14.83;10.60;;;;;;;22.37;74.17;96266.59;5050944;28;20199;-71
2021/08/16 03:58:55;;;;;;;16.20;10.90;;;;;;;22.18;75.05;96269.59;5053435;28;20193;-71
2021/08/16 04:01:21;;;;;;;18.00;11.87;;;;;;;22.09;75.80;96271.91;5049738;28;20195;-71
2021/08/16 04:03:47;;;;;;;14.80;11.43;;;;;;;22.22;75.16;96278.72;5050866;28;20262;-71
2021/08/16 04:06:13;;;;;;;15.10;11.27;;;;;;;22.14;75.46;96283.69;5052187;28;20186;-71
2021/08/16 04:08:39;;;;;;;32.87;12.50;;;;;;;22.17;75.27;96289.34;5057921;28;20989;-70
2021/08/16 04:11:09;;;;;;;19.33;11.70;;;;;;;22.29;74.61;96291.06;5050680;28;20190;-71
2021/08/16 04:13:34;;;;;;;15.23;12.13;;;;;;;21.98;76.22;96302.19;5052957;28;20484;-70
2021/08/16 04:16:00;;;;;;;16.70;11.90;;;;;;;22.23;74.83;96288.34;5050660;28;20453;-70
2021/08/16 04:18:26;;;;;;;18.33;12.17;;;;;;;21.96;76.10;96290.13;5052169;28;20248;-72
2021/08/16 04:20:52;;;;;;;24.90;11.93;;;;;;;21.91;76.41;96297.03;5054971;28;20191;-72
2021/08/16 04:23:17;;;;;;;14.00;12.57;;;;;;;22.22;75.28;96299.28;5054586;28;20700;-70
2021/08/16 04:25:43;;;;;;;18.00;11.97;;;;;;;22.21;74.78;96297.66;5054711;28;20676;-70
2021/08/16 04:28:08;;;;;;;13.50;10.93;;;;;;;22.23;74.44;96290.22;5054649;28;20282;-72
2021/08/16 04:30:34;;;;;;;15.07;10.83;;;;;;;22.38;73.17;96284.22;5054692;28;20556;-72
2021/08/16 04:33:00;;;;;;;19.13;11.40;;;;;;;21.92;74.01;96293.31;5062806;28;20191;-72
2021/08/16 04:35:25;;;;;;;13.53;10.43;;;;;;;22.34;72.14;96294.59;5053989;28;20181;-72
2021/08/16 04:37:51;;;;;;;12.03;10.83;;;;;;;22.19;72.37;96297.88;5063784;28;20329;-70
2021/08/16 04:40:16;;;;;;;16.73;9.77;;;;;;;22.15;72.54;96291.47;5054565;28;20185;-73
2021/08/16 04:42:42;;;;;;;17.97;10.10;;;;;;;21.90;72.42;96298.09;5054345;28;20179;-70
2021/08/16 04:45:10;;;;;;;12.63;9.80;;;;;;;22.16;71.19;96290.41;5053791;28;20199;-70
2021/08/16 04:47:36;;;;;;;14.73;9.73;;;;;;;22.09;70.80;96303.09;5055887;28;20440;-70
2021/08/16 04:50:03;;;;;;;13.67;8.63;;;;;;;22.04;70.58;96311.06;5054220;28;20430;-72
2021/08/16 04:52:29;;;;;;;12.43;8.63;;;;;;;22.11;70.15;96306.34;5046468;28;20183;-72
2021/08/16 04:54:54;;;;;;;15.57;9.43;;;;;;;22.31;69.45;96312.97;5055012;28;20437;-72
2021/08/16 04:57:29;;;;;;;10.83;7.80;;;;;;;22.06;69.55;96319.59;5056110;28;20253;-73
2021/08/16 04:59:54;;;;;;;14.03;8.53;;;;;;;22.05;68.83;96324.13;5056079;28;20187;-72
2021/08/16 05:02:20;;;;;;;19.63;9.17;;;;;;;21.88;68.46;96324.19;5056507;28;20923;-72
2021/08/16 05:04:46;;;;;;;12.47;8.30;;;;;;;21.95;67.67;96334.69;5055643;28;20581;-71
2021/08/16 05:07:12;;;;;;;14.60;7.70;;;;;;;21.81;67.58;96334.22;5062224;28;20273;-72
2021/08/16 05:09:38;;;;;;;13.80;7.40;;;;;;;21.95;66.65;96345.34;5053858;28;20867;-72
2021/08/16 05:12:04;;;;;;;11.30;7.40;;;;;;;21.97;66.33;96342.44;5054012;28;20183;-71
2021/08/16 05:14:29;;;;;;;12.00;7.37;;;;;;;21.89;66.05;96347.13;5053476;28;20199;-72
2021/08/16 05:16:55;;;;;;;11.70;6.67;;;;;;;22.04;65.28;96349.19;5053779;28;20211;-72
2021/08/16 05:19:20;;;;;;;12.50;7.10;;;;;;;21.98;65.24;96350.19;5047866;28;20203;-72
2021/08/16 05:21:46;;;;;;;14.23;7.87;;;;;;;22.04;65.03;96348.41;5059243;28;20213;-72
2021/08/16 05:24:11;;;;;;;8.73;7.70;;;;;;;22.27;64.42;96357.22;5053223;28;20206;-72
2021/08/16 05:26:37;;;;;;;10.33;7.40;;;;;;;22.21;64.49;96365.16;5053708;28;20266;-72
2021/08/16 05:29:02;;;;;;;12.53;7.10;;;;;;;22.20;64.32;96368.88;5048520;28;20673;-72
2021/08/16 05:31:28;;;;;;;17.00;8.07;;;;;;;22.30;64.09;96370.09;5061554;28;20174;-72
2021/08/16 05:33:54;;;;;;;15.10;7.17;;;;;;;22.52;63.07;96376.25;5051741;28;20207;-72
2021/08/16 05:36:19;;;;;;;13.70;8.17;;;;;;;22.32;63.69;96371.44;5055807;28;20202;-72
2021/08/16 05:38:45;;;;;;;24.77;11.67;;;;;;;22.35;63.85;96367.47;5060301;28;20201;-72
2021/08/16 05:41:11;;;;;;;27.00;9.63;;;;;;;22.19;64.25;96377.94;5069385;28;20190;-71
2021/08/16 05:43:37;;;;;;;26.23;9.97;;;;;;;22.66;62.97;96381.22;5059062;28;20437;-72
2021/08/16 05:46:03;;;;;;;9.40;6.47;;;;;;;22.59;62.91;96394.75;5073466;28;20420;-72
2021/08/16 05:48:29;;;;;;;16.17;7.40;;;;;;;22.44;62.98;96398.00;5073590;28;20186;-71
2021/08/16 05:50:54;;;;;;;53.33;15.33;;;;;;;22.61;62.34;96400.66;5073222;28;20819;-72
2021/08/16 05:53:20;;;;;;;40.87;13.50;;;;;;;22.31;62.96;96401.03;5072832;28;20214;-72
2021/08/16 05:55:45;;;;;;;35.97;12.80;;;;;;;22.71;62.03;96399.94;5056365;28;20179;-72
2021/08/16 05:58:11;;;;;;;19.23;8.00;;;;;;;22.60;61.90;96407.03;5064719;28;20400;-71
2021/08/16 06:00:37;;;;;;;19.00;7.73;;;;;;;22.42;61.92;96400.16;5055804;28;20183;-71
2021/08/16 06:03:03;;;;;;;17.70;7.17;;;;;;;22.35;62.15;96400.31;5072861;28;20788;-70
2021/08/16 06:05:28;;;;;;;9.40;6.70;;;;;;;22.11;63.25;96394.38;5072762;28;20205;-71
2021/08/16 06:07:54;;;;;;;7.00;6.30;;;;;;;22.19;62.94;96393.94;5050836;28;20204;-72
2021/08/16 06:10:19;;;;;;;10.97;6.83;;;;;;;22.40;62.37;96399.56;5070492;28;20259;-72
2021/08/16 06:12:45;;;;;;;11.90;5.67;;;;;;;22.73;61.11;96411.19;5072690;28;20182;-70
2021/08/16 06:15:12;;;;;;;10.57;6.50;;;;;;;22.47;61.75;96402.06;5072647;28;20282;-71
2021/08/16 06:17:40;;;;;;;8.90;6.17;;;;;;;22.42;61.88;96410.81;5064563;28;20211;-72
2021/08/16 06:20:06;;;;;;;14.63;5.63;;;;;;;22.39;62.13;96425.44;5063156;28;20771;-72
2021/08/16 06:22:33;;;;;;;12.73;5.67;;;;;;;22.28;62.37;96422.88;5063738;28;20419;-72
2021/08/16 06:25:00;;;;;;;8.70;6.17;;;;;;;22.65;61.11;96436.44;5064369;28;20441;-72
2021/08/16 06:27:25;;;;;;;9.83;6.30;;;;;;;22.44;61.97;96440.72;5072244;28;20416;-72
2021/08/16 06:29:51;;;;;;;9.00;6.40;;;;;;;22.64;61.58;96431.38;5072661;28;20817;-72
2021/08/16 06:32:16;;;;;;;20.57;7.70;;;;;;;22.60;60.73;96441.75;5070589;28;20185;-72
2021/08/16 06:34:43;;;;;;;11.40;6.60;;;;;;;22.55;61.38;96437.16;5070918;28;20210;-72
2021/08/16 06:37:08;;;;;;;8.73;5.30;;;;;;;22.13;61.46;96426.97;5072033;28;20221;-72
2021/08/16 06:39:34;;;;;;;7.67;5.33;;;;;;;22.21;60.01;96429.19;5065666;28;20451;-72
2021/08/16 06:41:59;;;;;;;6.23;4.83;;;;;;;22.34;59.32;96435.22;5071811;28;20218;-71
2021/08/16 06:44:26;;;;;;;6.20;5.10;;;;;;;22.24;59.49;96438.59;5069867;28;20247;-72
2021/08/16 06:46:53;;;;;;;7.00;4.70;;;;;;;21.80;59.68;96439.25;5072434;28;20656;-71
2021/08/16 06:49:18;;;;;;;12.03;4.97;;;;;;;21.81;59.58;96451.53;5071948;28;20796;-72
2021/08/16 06:51:44;;;;;;;9.37;4.53;;;;;;;21.77;59.45;96453.88;5072091;28;20486;-71
2021/08/16 06:54:10;;;;;;;10.47;4.70;;;;;;;21.94;59.03;96456.53;5071736;28;20220;-71
2021/08/16 06:56:36;;;;;;;11.93;4.73;;;;;;;21.65;59.43;96449.69;5072207;28;20259;-72
2021/08/16 06:59:01;;;;;;;6.77;4.93;;;;;;;22.44;57.10;96454.06;5072150;28;20265;-71
2021/08/16 07:01:28;;;;;;;7.77;4.00;;;;;;;22.35;56.64;96452.84;5072205;28;20547;-70
2021/08/16 07:03:55;;;;;;;9.50;5.30;;;;;;;22.10;56.66;96459.44;5071613;28;20207;-71
2021/08/16 07:06:21;;;;;;;6.43;4.43;;;;;;;21.81;57.46;96464.06;5071538;28;20486;-71
2021/08/16 07:08:47;;;;;;;5.00;4.10;;;;;;;21.86;57.39;96459.63;5065638;28;20523;-70
2021/08/16 07:11:13;;;;;;;6.40;4.40;;;;;;;21.98;57.01;96461.41;5071753;28;20621;-71
2021/08/16 07:13:38;;;;;;;7.90;4.40;;;;;;;22.04;56.95;96469.25;5071466;28;20532;-71
2021/08/16 07:16:05;;;;;;;8.13;4.20;;;;;;;22.68;55.48;96467.22;5071549;28;20210;-71
2021/08/16 07:18:33;;;;;;;4.73;4.07;;;;;;;22.98;54.49;96479.31;5067361;28;20681;-71
2021/08/16 07:20:59;;;;;;;8.23;4.10;;;;;;;22.05;56.86;96470.84;5065995;28;20463;-71
2021/08/16 07:23:25;;;;;;;5.60;4.30;;;;;;;22.40;56.04;96469.75;5071154;28;21028;-71
2021/08/16 07:25:51;;;;;;;4.67;3.70;;;;;;;22.06;56.59;96477.00;5071333;28;20205;-72
2021/08/16 07:28:16;;;;;;;9.57;4.73;;;;;;;22.37;56.07;96478.25;5071270;28;20864;-71
2021/08/16 07:30:42;;;;;;;7.63;4.20;;;;;;;22.11;55.45;96466.41;5072267;28;20256;-71
2021/08/16 07:33:07;;;;;;;7.20;4.10;;;;;;;22.41;55.36;96465.25;5065646;28;20228;-71
2021/08/16 07:35:33;;;;;;;7.90;4.17;;;;;;;22.58;54.73;96475.06;5072137;28;20187;-71
2021/08/16 07:37:58;;;;;;;6.80;4.00;;;;;;;22.19;55.07;96473.19;5066543;28;20303;-71
2021/08/16 07:40:24;;;;;;;8.53;3.80;;;;;;;22.41;54.62;96475.94;5070694;28;20271;-71
2021/08/16 07:42:50;;;;;;;7.17;4.20;;;;;;;22.44;54.94;96475.44;5070361;28;20205;-71
2021/08/16 07:45:15;;;;;;;6.07;3.70;;;;;;;22.76;53.92;96474.78;5070720;28;20380;-70
2021/08/16 07:47:41;;;;;;;5.43;4.07;;;;;;;22.84;53.53;96471.66;5071774;28;20622;-71
2021/08/16 07:50:10;;;;;;;5.30;4.00;;;;;;;22.53;54.70;96478.47;5071265;28;20186;-71
2021/08/16 07:52:40;;;;;;;10.00;4.10;;;;;;;22.88;53.79;96474.63;5070749;28;20424;-71
2021/08/16 07:55:08;;;;;;;14.80;5.10;;;;;;;22.99;54.06;96475.56;5070876;28;20464;-70
2021/08/16 07:57:34;;;;;;;5.20;3.20;;;;;;;22.80;53.30;96478.59;5069692;28;20459;-70
2021/08/16 08:00:00;;;;;;;13.47;4.27;;;;;;;22.63;53.56;96475.16;5071110;28;20428;-71
2021/08/16 08:02:26;;;;;;;9.70;4.07;;;;;;;22.82;53.01;96476.44;5071401;28;20637;-70
2021/08/16 08:04:52;;;;;;;9.23;3.77;;;;;;;22.79;52.97;96476.97;5070568;28;20440;-71
2021/08/16 08:07:18;;;;;;;5.53;3.70;;;;;;;;;;5071082;28;20427;-71
2021/08/16 08:09:43;;;;;;;4.80;3.67;;;;;;;23.23;51.81;96469.97;5061504;28;20432;-71
2021/08/16 08:12:09;;;;;;;5.67;3.53;;;;;;;22.86;52.26;96458.88;5071485;28;20191;-71
2021/08/16 08:14:34;;;;;;;5.27;3.90;;;;;;;22.80;52.50;96473.25;5071023;28;20214;-72
2021/08/16 08:17:00;;;;;;;18.20;4.07;;;;;;;22.95;50.85;96472.59;5072042;28;20262;-71
2021/08/16 08:19:26;;;;;;;5.63;3.77;;;;;;;22.76;50.81;96471.28;5063019;28;20175;-71
2021/08/16 08:21:51;;;;;;;5.33;3.77;;;;;;;22.62;51.32;96478.88;5058664;28;20508;-71
2021/08/16 08:24:17;;;;;;;6.87;3.70;;;;;;;22.88;50.66;96476.53;5051917;28;20286;-71
2021/08/16 08:26:43;;;;;;;7.07;3.70;;;;;;;23.29;49.50;96475.13;5071248;28;20192;-71
2021/08/16 08:29:08;;;;;;;6.50;4.50;;;;;;;23.76;49.08;96480.88;5071269;28;20622;-71
2021/08/16 08:31:37;;;;;;;5.53;3.90;;;;;;;24.15;48.04;96469.19;5071500;28;20182;-71
2021/08/16 08:34:03;;;;;;;7.00;4.20;;;;;;;24.19;46.92;96464.94;5054865;28;20291;-72
2021/08/16 08:36:29;;;;;;;7.70;3.73;;;;;;;24.03;47.34;96472.03;5068390;28;20907;-72
2021/08/16 08:38:54;;;;;;;6.77;4.83;;;;;;;23.35;48.46;96477.88;5064686;28;20256;-71
2021/08/16 08:41:21;;;;;;;5.90;4.30;;;;;;;23.44;48.57;96482.47;5054302;28;20274;-70
2021/08/16 08:43:47;;;;;;;7.60;4.20;;;;;;;23.54;48.77;96481.78;5069981;28;20289;-70
2021/08/16 08:46:13;;;;;;;5.63;3.90;;;;;;;23.39;49.02;96479.78;5071444;28;20504;-70
2021/08/16 08:48:39;;;;;;;6.03;3.90;;;;;;;23.90;47.96;96479.41;5069680;28;20598;-71
2021/08/16 08:51:06;;;;;;;10.40;4.13;;;;;;;24.11;47.14;96468.06;5068742;28;20473;-71
2021/08/16 08:53:31;;;;;;;7.23;4.20;;;;;;;24.14;47.21;96473.72;5071069;28;20979;-71
2021/08/16 08:55:57;;;;;;;8.77;4.20;;;;;;;24.72;45.91;96456.13;5072046;28;20190;-71
2021/08/16 08:58:23;;;;;;;5.90;4.10;;;;;;;24.52;46.38;96460.28;5065428;28;20275;-70
2021/08/16 09:00:48;;;;;;;6.73;4.30;;;;;;;24.30;46.69;96466.63;5044695;28;20703;-71
2021/08/16 09:03:14;;;;;;;9.30;4.03;;;;;;;23.35;49.17;96478.66;5054839;28;20240;-70
2021/08/16 09:05:51;;;;;;;15.07;5.37;;;;;;;23.78;48.96;96482.28;5074640;28;20179;-70
2021/08/16 09:08:27;;;;;;;9.60;4.77;;;;;;;23.40;48.90;96476.03;5069493;28;20194;-70
2021/08/16 09:11:16;;;;;;;10.13;4.53;;;;;;;23.39;48.96;96479.78;5075956;28;20424;-71
2021/08/16 09:13:49;;;;;;;8.70;4.70;;;;;;;23.24;48.97;96485.78;5074097;28;20440;-72
2021/08/16 09:16:14;;;;;;;6.07;4.17;;;;;;;23.39;48.55;96485.13;5074962;28;20451;-71
2021/08/16 09:18:40;;;;;;;7.93;4.40;;;;;;;23.45;48.51;96476.06;5070431;28;20807;-71
2021/08/16 09:21:06;;;;;;;10.17;4.77;;;;;;;23.39;49.05;96484.31;5070505;28;20190;-71
2021/08/16 09:23:49;;;;;;;8.97;4.70;;;;;;;23.90;47.76;96470.59;5067719;28;20637;-71
2021/08/16 09:26:18;;;;;;;7.90;4.53;;;;;;;23.31;48.67;96478.38;5074409;28;20421;-71
2021/08/16 09:28:44;;;;;;;8.27;4.70;;;;;;;23.01;48.98;96497.50;5066187;28;20428;-71
2021/08/16 09:31:15;;;;;;;7.70;4.13;;;;;;;23.56;48.43;96468.19;5070121;28;20421;-71
2021/08/16 09:33:54;;;;;;;12.20;4.33;;;;;;;23.97;47.42;96462.38;5075205;28;20206;-71
2021/08/16 09:36:19;;;;;;;8.03;4.47;;;;;;;24.15;46.67;96479.88;5074773;28;20543;-72
2021/08/16 09:38:45;;;;;;;11.57;4.40;;;;;;;23.60;47.50;96463.91;5066735;28;20540;-71
2021/08/16 09:41:22;;;;;;;5.37;3.63;;;;;;;23.12;47.94;96472.53;5074680;28;20187;-71
2021/08/16 09:43:49;;;;;;;9.40;4.30;;;;;;;23.73;47.59;96463.50;5075104;28;20205;-72
2021/08/16 09:46:16;;;;;;;7.37;4.27;;;;;;;24.14;46.29;96460.34;5058153;28;20445;-72
2021/08/16 09:48:41;;;;;;;6.90;4.40;;;;;;;23.41;47.21;96461.63;5074816;28;20425;-71
2021/08/16 09:51:07;;;;;;;5.00;3.90;;;;;;;24.18;46.01;96447.25;5073844;28;20451;-71
2021/08/16 09:53:34;;;;;;;11.17;4.60;;;;;;;24.08;46.50;96448.78;5064427;28;20285;-71
2021/08/16 09:56:02;;;;;;;8.90;4.50;;;;;;;23.49;47.70;96456.88;5074493;28;20718;-71
2021/08/16 09:58:29;;;;;;;10.27;4.23;;;;;;;23.76;46.92;96452.28;5074545;28;20512;-71
2021/08/16 10:00:55;;;;;;;10.30;4.47;;;;;;;23.93;46.59;96444.13;5073464;28;20432;-71
2021/08/16 10:03:21;;;;;;;6.33;4.03;;;;;;;23.72;47.32;96461.88;5073913;28;20509;-71
2021/08/16 10:05:49;;;;;;;11.23;4.00;;;;;;;23.50;47.48;96459.31;5072774;28;20907;-71
2021/08/16 10:08:21;;;;;;;9.73;5.00;;;;;;;24.16;46.43;96455.53;5066990;28;20183;-71
2021/08/16 10:10:47;;;;;;;10.10;4.40;;;;;;;24.28;46.36;96455.34;5074084;28;20425;-71
2021/08/16 10:13:12;;;;;;;7.60;4.10;;;;;;;24.48;45.80;96454.66;5071897;28;20822;-70
2021/08/16 10:15:43;;;;;;;11.67;4.30;;;;;;;25.61;44.10;96454.22;5057749;28;20180;-71
2021/08/16 10:18:13;;;;;;;6.50;4.20;;;;;;;24.68;45.14;96455.81;5066550;28;20217;-71
2021/08/16 10:20:38;;;;;;;12.93;3.93;;;;;;;23.88;46.99;96454.78;5065778;28;21070;-72
2021/08/16 10:23:18;;;;;;;6.00;4.10;;;;;;;23.46;47.77;96461.66;5072311;28;20427;-72
2021/08/16 10:25:45;;;;;;;7.67;3.57;;;;;;;23.52;48.28;96456.38;5074204;28;20185;-72
2021/08/16 10:28:31;;;;;;;9.40;3.53;;;;;;;23.45;47.50;96467.25;5074171;28;20420;-73
2021/08/16 10:30:59;;;;;;;7.37;3.70;;;;;;;23.28;48.09;96468.16;5074362;28;20581;-72
2021/08/16 10:33:25;;;;;;;10.43;4.17;;;;;;;23.80;46.46;96463.28;5075665;28;20947;-71
2021/08/16 10:35:51;;;;;;;7.90;4.33;;;;;;;24.04;46.35;96455.75;5076773;28;20428;-71
2021/08/16 10:38:19;;;;;;;6.73;3.97;;;;;;;23.50;47.11;96458.47;5064463;28;20442;-71
2021/08/16 10:40:50;;;;;;;7.23;3.50;;;;;;;23.92;45.75;96450.53;5069698;28;20790;-72
2021/08/16 10:43:16;;;;;;;9.00;3.17;;;;;;;24.00;45.36;96457.31;5073396;28;20420;-71
2021/08/16 10:45:50;;;;;;;7.20;4.10;;;;;;;23.86;45.53;96442.72;5073774;28;20540;-71
2021/08/16 10:48:27;;;;;;;9.80;4.33;;;;;;;23.82;46.27;96449.66;5065371;28;20436;-73
2021/08/16 10:51:08;;;;;;;10.43;4.13;;;;;;;23.74;46.39;96449.06;5071860;28;20428;-70
2021/08/16 10:53:54;;;;;;;6.33;3.30;;;;;;;24.10;45.78;96442.38;5071664;28;20995;-71
2021/08/16 10:56:24;;;;;;;8.20;4.20;;;;;;;24.06;46.05;96450.13;5072680;28;20468;-70
2021/08/16 10:58:52;;;;;;;8.83;3.73;;;;;;;23.78;46.03;96449.34;5068799;28;20444;-71
2021/08/16 11:01:35;;;;;;;8.10;4.37;;;;;;;24.06;45.90;96436.75;5072225;28;20915;-71
2021/08/16 11:04:03;;;;;;;11.67;3.43;;;;;;;24.43;44.91;96432.41;5054337;28;20845;-71
2021/08/16 11:06:30;;;;;;;5.30;3.37;;;;;;;24.51;44.88;96439.94;5054606;28;20467;-71
2021/08/16 11:09:00;;;;;;;8.60;3.90;;;;;;;24.86;43.83;96421.63;5067044;28;20421;-70
2021/08/16 11:11:26;;;;;;;6.63;3.57;;;;;;;24.89;44.08;96427.25;5072536;28;20424;-71
2021/08/16 11:14:08;;;;;;;7.47;3.53;;;;;;;24.80;44.17;96418.13;5071333;28;20809;-71
2021/08/16 11:16:34;;;;;;;4.90;3.50;;;;;;;25.64;42.31;96422.56;5072233;28;20673;-72
2021/08/16 11:19:00;;;;;;;6.10;3.73;;;;;;;25.23;43.32;96421.44;5062487;28;20556;-71
2021/08/16 11:21:29;;;;;;;7.90;3.77;;;;;;;24.75;43.28;96423.47;5055514;28;20424;-71
2021/08/16 11:23:59;;;;;;;7.17;4.10;;;;;;;24.24;44.23;96419.44;5072508;28;20228;-71